sensor_id;sensor_type;location;lat;lon;timestamp;temperature;humidity
6740;DHT22;3407;49.882;10.920;2023-04-23T00:03:55;15.30;99.90
6740;DHT22;3407;49.882;10.920;2023-04-23T00:08:56;15.30;1.00
6740;DHT22;3407;49.882;10.920;2023-04-23T00:13:54;15.30;1.00
6740;DHT22;3407;49.882;10.920;2023-04-23T00:18:50;15.30;1.00
6740;DHT22;3407;49.882;10.920;2023-04-23T00:23:45;15.30;57.40
6740;DHT22;3407;49.882;10.920;2023-04-23T00:28:41;15.20;99.90
6740;DHT22;3407;49.882;10.920;2023-04-23T00:33:36;15.20;99.90
6740;DHT22;3407;49.882;10.920;2023-04-23T00:38:32;15.10;11.40
6740;DHT22;3407;49.882;10.920;2023-04-23T00:43:28;15.10;1.00
6740;DHT22;3407;49.882;10.920;2023-04-23T00:48:23;15.00;1.00
6740;DHT22;3407;49.882;10.920;2023-04-23T00:53:20;15.00;1.00
6740;DHT22;3407;49.882;10.920;2023-04-23T00:58:15;15.00;1.00
6740;DHT22;3407;49.882;10.920;2023-04-23T01:03:11;15.00;1.00
6740;DHT22;3407;49.882;10.920;2023-04-23T01:08:09;14.90;1.00
6740;DHT22;3407;49.882;10.920;2023-04-23T01:13:06;14.80;99.90
6740;DHT22;3407;49.882;10.920;2023-04-23T01:18:02;14.70;99.90
6740;DHT22;3407;49.882;10.920;2023-04-23T01:22:58;14.70;99.90
6740;DHT22;3407;49.882;10.920;2023-04-23T01:27:55;14.70;29.10
6740;DHT22;3407;49.882;10.920;2023-04-23T01:32:55;14.70;99.90
6740;DHT22;3407;49.882;10.920;2023-04-23T01:37:52;14.60;99.90
6740;DHT22;3407;49.882;10.920;2023-04-23T01:42:49;14.60;99.90
6740;DHT22;3407;49.882;10.920;2023-04-23T01:47:45;14.60;99.90
6740;DHT22;3407;49.882;10.920;2023-04-23T01:52:42;14.50;99.90
6740;DHT22;3407;49.882;10.920;2023-04-23T01:57:39;14.50;99.90
6740;DHT22;3407;49.882;10.920;2023-04-23T02:02:34;14.60;1.00
6740;DHT22;3407;49.882;10.920;2023-04-23T02:07:33;14.50;90.30
6740;DHT22;3407;49.882;10.920;2023-04-23T02:12:29;14.50;99.90
6740;DHT22;3407;49.882;10.920;2023-04-23T02:17:25;14.50;1.00
6740;DHT22;3407;49.882;10.920;2023-04-23T02:22:22;14.50;1.00
6740;DHT22;3407;49.882;10.920;2023-04-23T02:27:20;14.50;1.00
6740;DHT22;3407;49.882;10.920;2023-04-23T02:32:15;14.50;83.00
6740;DHT22;3407;49.882;10.920;2023-04-23T02:37:11;14.50;99.90
6740;DHT22;3407;49.882;10.920;2023-04-23T02:42:06;14.40;99.90
6740;DHT22;3407;49.882;10.920;2023-04-23T02:47:02;14.40;99.90
6740;DHT22;3407;49.882;10.920;2023-04-23T02:51:58;14.40;99.90
6740;DHT22;3407;49.882;10.920;2023-04-23T02:56:53;14.40;99.90
6740;DHT22;3407;49.882;10.920;2023-04-23T03:01:49;14.30;74.50
6740;DHT22;3407;49.882;10.920;2023-04-23T03:06:46;14.20;1.00
6740;DHT22;3407;49.882;10.920;2023-04-23T03:11:42;14.10;1.00
6740;DHT22;3407;49.882;10.920;2023-04-23T03:16:38;14.10;99.90
6740;DHT22;3407;49.882;10.920;2023-04-23T03:21:33;14.10;99.90
6740;DHT22;3407;49.882;10.920;2023-04-23T03:26:29;14.10;1.00
6740;DHT22;3407;49.882;10.920;2023-04-23T03:31:25;14.10;1.00
6740;DHT22;3407;49.882;10.920;2023-04-23T03:36:21;14.10;1.00
6740;DHT22;3407;49.882;10.920;2023-04-23T03:41:16;14.10;99.90
6740;DHT22;3407;49.882;10.920;2023-04-23T03:46:12;14.10;1.00
6740;DHT22;3407;49.882;10.920;2023-04-23T03:51:07;14.00;1.00
6740;DHT22;3407;49.882;10.920;2023-04-23T03:56:03;14.00;75.70
6740;DHT22;3407;49.882;10.920;2023-04-23T04:00:58;13.90;99.90
6740;DHT22;3407;49.882;10.920;2023-04-23T04:05:54;13.80;99.90
6740;DHT22;3407;49.882;10.920;2023-04-23T04:10:50;13.80;99.90
6740;DHT22;3407;49.882;10.920;2023-04-23T04:15:45;13.70;99.90
6740;DHT22;3407;49.882;10.920;2023-04-23T04:20:41;13.70;99.90
6740;DHT22;3407;49.882;10.920;2023-04-23T04:25:38;13.70;99.90
6740;DHT22;3407;49.882;10.920;2023-04-23T04:30:34;13.70;99.90
6740;DHT22;3407;49.882;10.920;2023-04-23T04:35:30;13.60;99.90
6740;DHT22;3407;49.882;10.920;2023-04-23T04:40:26;13.60;99.90
6740;DHT22;3407;49.882;10.920;2023-04-23T04:45:22;13.60;1.00
6740;DHT22;3407;49.882;10.920;2023-04-23T04:50:20;13.60;1.00
6740;DHT22;3407;49.882;10.920;2023-04-23T04:55:15;13.70;1.00
6740;DHT22;3407;49.882;10.920;2023-04-23T05:00:25;13.80;99.90
6740;DHT22;3407;49.882;10.920;2023-04-23T05:05:24;13.80;99.90
6740;DHT22;3407;49.882;10.920;2023-04-23T05:10:20;13.80;99.90
6740;DHT22;3407;49.882;10.920;2023-04-23T05:15:16;13.90;99.90
6740;DHT22;3407;49.882;10.920;2023-04-23T05:20:12;14.00;99.90
6740;DHT22;3407;49.882;10.920;2023-04-23T05:25:10;14.00;99.90
6740;DHT22;3407;49.882;10.920;2023-04-23T05:30:07;14.10;99.90
6740;DHT22;3407;49.882;10.920;2023-04-23T05:35:04;14.30;99.90
6740;DHT22;3407;49.882;10.920;2023-04-23T05:40:00;14.30;1.00
6740;DHT22;3407;49.882;10.920;2023-04-23T05:44:57;14.50;1.00
6740;DHT22;3407;49.882;10.920;2023-04-23T05:49:52;14.50;99.90
6740;DHT22;3407;49.882;10.920;2023-04-23T05:54:48;14.50;99.90
6740;DHT22;3407;49.882;10.920;2023-04-23T05:59:43;14.40;99.90
6740;DHT22;3407;49.882;10.920;2023-04-23T06:04:38;14.40;99.90
6740;DHT22;3407;49.882;10.920;2023-04-23T06:09:34;14.40;99.90
6740;DHT22;3407;49.882;10.920;2023-04-23T06:14:30;14.30;1.00
6740;DHT22;3407;49.882;10.920;2023-04-23T06:19:25;14.40;1.00
6740;DHT22;3407;49.882;10.920;2023-04-23T06:24:22;14.30;1.00
6740;DHT22;3407;49.882;10.920;2023-04-23T06:29:17;14.30;1.90
6740;DHT22;3407;49.882;10.920;2023-04-23T06:34:13;14.20;99.90
6740;DHT22;3407;49.882;10.920;2023-04-23T06:39:08;14.20;1.00
6740;DHT22;3407;49.882;10.920;2023-04-23T06:44:04;14.10;1.00
6740;DHT22;3407;49.882;10.920;2023-04-23T06:49:00;14.10;1.00
6740;DHT22;3407;49.882;10.920;2023-04-23T06:53:55;14.10;1.00
6740;DHT22;3407;49.882;10.920;2023-04-23T06:58:51;14.20;1.00
6740;DHT22;3407;49.882;10.920;2023-04-23T07:03:47;14.40;1.00
6740;DHT22;3407;49.882;10.920;2023-04-23T07:08:45;14.80;99.90
6740;DHT22;3407;49.882;10.920;2023-04-23T07:13:41;15.20;1.00
6740;DHT22;3407;49.882;10.920;2023-04-23T07:18:36;15.60;1.00
6740;DHT22;3407;49.882;10.920;2023-04-23T07:23:32;16.10;1.00
6740;DHT22;3407;49.882;10.920;2023-04-23T07:28:27;16.40;1.00
6740;DHT22;3407;49.882;10.920;2023-04-23T07:33:23;16.50;1.00
6740;DHT22;3407;49.882;10.920;2023-04-23T07:38:19;16.60;1.00
6740;DHT22;3407;49.882;10.920;2023-04-23T07:43:15;16.70;1.00
6740;DHT22;3407;49.882;10.920;2023-04-23T07:48:11;16.70;1.00
6740;DHT22;3407;49.882;10.920;2023-04-23T07:53:06;17.30;99.90
6740;DHT22;3407;49.882;10.920;2023-04-23T07:58:02;17.90;1.00
6740;DHT22;3407;49.882;10.920;2023-04-23T08:02:58;18.10;1.00
6740;DHT22;3407;49.882;10.920;2023-04-23T08:07:53;17.80;1.00
6740;DHT22;3407;49.882;10.920;2023-04-23T08:12:49;18.40;1.00
6740;DHT22;3407;49.882;10.920;2023-04-23T08:17:45;20.70;99.90
6740;DHT22;3407;49.882;10.920;2023-04-23T08:22:40;20.80;99.90
6740;DHT22;3407;49.882;10.920;2023-04-23T08:27:36;20.10;99.90
6740;DHT22;3407;49.882;10.920;2023-04-23T08:32:32;19.60;99.90
6740;DHT22;3407;49.882;10.920;2023-04-23T08:37:27;19.30;99.90
6740;DHT22;3407;49.882;10.920;2023-04-23T08:47:39;20.50;99.90
6740;DHT22;3407;49.882;10.920;2023-04-23T08:52:40;21.40;99.90
6740;DHT22;3407;49.882;10.920;2023-04-23T08:57:38;23.30;99.90
6740;DHT22;3407;49.882;10.920;2023-04-23T09:02:39;24.30;99.90
6740;DHT22;3407;49.882;10.920;2023-04-23T09:07:35;24.30;99.90
6740;DHT22;3407;49.882;10.920;2023-04-23T09:12:32;23.60;99.90
6740;DHT22;3407;49.882;10.920;2023-04-23T09:17:30;23.00;99.90
6740;DHT22;3407;49.882;10.920;2023-04-23T09:22:44;21.70;99.90
6740;DHT22;3407;49.882;10.920;2023-04-23T09:27:40;21.40;99.90
6740;DHT22;3407;49.882;10.920;2023-04-23T09:32:38;21.50;99.90
6740;DHT22;3407;49.882;10.920;2023-04-23T09:37:35;21.30;99.90
6740;DHT22;3407;49.882;10.920;2023-04-23T09:42:31;21.50;99.90
6740;DHT22;3407;49.882;10.920;2023-04-23T09:47:31;21.30;99.90
6740;DHT22;3407;49.882;10.920;2023-04-23T09:52:27;25.30;99.90
6740;DHT22;3407;49.882;10.920;2023-04-23T09:57:25;27.50;99.90
6740;DHT22;3407;49.882;10.920;2023-04-23T10:02:26;30.60;99.90
6740;DHT22;3407;49.882;10.920;2023-04-23T10:07:23;33.10;99.90
6740;DHT22;3407;49.882;10.920;2023-04-23T10:12:19;34.20;99.90
6740;DHT22;3407;49.882;10.920;2023-04-23T10:17:15;34.40;99.90
6740;DHT22;3407;49.882;10.920;2023-04-23T10:22:13;30.60;99.90
6740;DHT22;3407;49.882;10.920;2023-04-23T10:27:13;31.80;99.90
6740;DHT22;3407;49.882;10.920;2023-04-23T10:32:10;33.90;99.90
6740;DHT22;3407;49.882;10.920;2023-04-23T10:37:06;34.10;99.90
6740;DHT22;3407;49.882;10.920;2023-04-23T10:42:03;31.50;99.90
6740;DHT22;3407;49.882;10.920;2023-04-23T10:46:59;33.70;99.90
6740;DHT22;3407;49.882;10.920;2023-04-23T10:57:02;37.70;99.90
6740;DHT22;3407;49.882;10.920;2023-04-23T11:02:05;37.30;99.90
6740;DHT22;3407;49.882;10.920;2023-04-23T11:07:08;33.70;99.90
6740;DHT22;3407;49.882;10.920;2023-04-23T11:12:06;30.50;99.90
6740;DHT22;3407;49.882;10.920;2023-04-23T11:17:05;31.10;99.90
6740;DHT22;3407;49.882;10.920;2023-04-23T11:22:14;32.90;99.90
6740;DHT22;3407;49.882;10.920;2023-04-23T11:27:16;34.00;99.90
6740;DHT22;3407;49.882;10.920;2023-04-23T11:32:16;34.50;99.90
6740;DHT22;3407;49.882;10.920;2023-04-23T11:37:13;31.30;99.90
6740;DHT22;3407;49.882;10.920;2023-04-23T11:42:10;28.30;99.90
6740;DHT22;3407;49.882;10.920;2023-04-23T11:47:10;26.90;99.90
6740;DHT22;3407;49.882;10.920;2023-04-23T11:52:06;25.80;99.90
6740;DHT22;3407;49.882;10.920;2023-04-23T11:57:02;25.10;99.90
6740;DHT22;3407;49.882;10.920;2023-04-23T12:02:00;24.30;99.90
6740;DHT22;3407;49.882;10.920;2023-04-23T12:06:57;24.00;99.90
6740;DHT22;3407;49.882;10.920;2023-04-23T12:11:53;23.90;99.90
6740;DHT22;3407;49.882;10.920;2023-04-23T12:16:49;24.00;99.90
6740;DHT22;3407;49.882;10.920;2023-04-23T12:21:57;23.20;99.90
6740;DHT22;3407;49.882;10.920;2023-04-23T12:26:58;22.80;99.90
6740;DHT22;3407;49.882;10.920;2023-04-23T12:31:58;24.10;99.90
6740;DHT22;3407;49.882;10.920;2023-04-23T12:36:54;24.80;99.90
6740;DHT22;3407;49.882;10.920;2023-04-23T12:41:52;23.70;99.90
6740;DHT22;3407;49.882;10.920;2023-04-23T12:46:53;22.70;99.90
6740;DHT22;3407;49.882;10.920;2023-04-23T12:51:48;22.20;99.90
6740;DHT22;3407;49.882;10.920;2023-04-23T12:56:44;21.60;99.90
6740;DHT22;3407;49.882;10.920;2023-04-23T13:01:39;21.80;99.90
6740;DHT22;3407;49.882;10.920;2023-04-23T13:06:36;22.80;99.90
6740;DHT22;3407;49.882;10.920;2023-04-23T13:11:31;24.20;99.90
6740;DHT22;3407;49.882;10.920;2023-04-23T13:16:27;24.70;99.90
6740;DHT22;3407;49.882;10.920;2023-04-23T13:21:23;24.20;99.90
6740;DHT22;3407;49.882;10.920;2023-04-23T13:26:19;23.70;99.90
6740;DHT22;3407;49.882;10.920;2023-04-23T13:31:14;23.50;99.90
6740;DHT22;3407;49.882;10.920;2023-04-23T13:36:10;23.00;99.90
6740;DHT22;3407;49.882;10.920;2023-04-23T13:41:05;22.70;99.90
6740;DHT22;3407;49.882;10.920;2023-04-23T13:46:01;23.10;99.90
6740;DHT22;3407;49.882;10.920;2023-04-23T13:51:00;24.00;99.90
6740;DHT22;3407;49.882;10.920;2023-04-23T13:55:59;23.20;99.90
6740;DHT22;3407;49.882;10.920;2023-04-23T14:00:54;22.00;99.90
6740;DHT22;3407;49.882;10.920;2023-04-23T14:05:50;21.60;99.90
6740;DHT22;3407;49.882;10.920;2023-04-23T14:10:46;22.80;99.90
6740;DHT22;3407;49.882;10.920;2023-04-23T14:15:41;23.90;99.90
6740;DHT22;3407;49.882;10.920;2023-04-23T14:20:37;23.60;99.90
6740;DHT22;3407;49.882;10.920;2023-04-23T14:25:39;23.10;99.90
6740;DHT22;3407;49.882;10.920;2023-04-23T14:30:35;22.60;99.90
6740;DHT22;3407;49.882;10.920;2023-04-23T14:35:31;21.90;99.90
6740;DHT22;3407;49.882;10.920;2023-04-23T14:40:26;21.90;99.90
6740;DHT22;3407;49.882;10.920;2023-04-23T14:45:22;22.00;99.90
6740;DHT22;3407;49.882;10.920;2023-04-23T14:50:17;21.90;99.90
6740;DHT22;3407;49.882;10.920;2023-04-23T14:55:13;21.90;99.90
6740;DHT22;3407;49.882;10.920;2023-04-23T15:00:09;21.80;99.90
6740;DHT22;3407;49.882;10.920;2023-04-23T15:05:08;21.50;99.90
6740;DHT22;3407;49.882;10.920;2023-04-23T15:10:04;21.30;99.90
6740;DHT22;3407;49.882;10.920;2023-04-23T15:15:04;21.10;99.90
6740;DHT22;3407;49.882;10.920;2023-04-23T15:20:00;20.90;99.90
6740;DHT22;3407;49.882;10.920;2023-04-23T15:24:55;20.50;99.90
6740;DHT22;3407;49.882;10.920;2023-04-23T15:29:51;20.60;99.90
6740;DHT22;3407;49.882;10.920;2023-04-23T15:34:46;20.90;99.90
6740;DHT22;3407;49.882;10.920;2023-04-23T15:39:42;20.90;99.90
6740;DHT22;3407;49.882;10.920;2023-04-23T15:44:37;20.80;99.90
6740;DHT22;3407;49.882;10.920;2023-04-23T15:49:33;20.30;99.90
6740;DHT22;3407;49.882;10.920;2023-04-23T15:54:28;20.20;99.90
6740;DHT22;3407;49.882;10.920;2023-04-23T15:59:24;20.00;99.90
6740;DHT22;3407;49.882;10.920;2023-04-23T16:04:19;19.70;99.90
6740;DHT22;3407;49.882;10.920;2023-04-23T16:09:15;19.40;99.90
6740;DHT22;3407;49.882;10.920;2023-04-23T16:14:10;19.20;99.90
6740;DHT22;3407;49.882;10.920;2023-04-23T16:19:06;19.00;99.90
6740;DHT22;3407;49.882;10.920;2023-04-23T16:24:02;19.00;99.90
6740;DHT22;3407;49.882;10.920;2023-04-23T16:28:58;18.90;99.90
6740;DHT22;3407;49.882;10.920;2023-04-23T16:33:53;18.90;99.90
6740;DHT22;3407;49.882;10.920;2023-04-23T16:38:49;18.90;99.90
6740;DHT22;3407;49.882;10.920;2023-04-23T16:43:45;18.80;99.90
6740;DHT22;3407;49.882;10.920;2023-04-23T16:48:44;18.70;99.90
6740;DHT22;3407;49.882;10.920;2023-04-23T16:53:39;18.70;99.90
6740;DHT22;3407;49.882;10.920;2023-04-23T16:58:35;18.70;99.90
6740;DHT22;3407;49.882;10.920;2023-04-23T17:03:31;18.70;99.90
6740;DHT22;3407;49.882;10.920;2023-04-23T17:08:27;18.70;99.90
6740;DHT22;3407;49.882;10.920;2023-04-23T17:13:23;18.60;99.90
6740;DHT22;3407;49.882;10.920;2023-04-23T17:18:18;18.50;99.90
6740;DHT22;3407;49.882;10.920;2023-04-23T17:23:14;18.40;99.90
6740;DHT22;3407;49.882;10.920;2023-04-23T17:28:10;18.30;99.90
6740;DHT22;3407;49.882;10.920;2023-04-23T17:33:05;18.20;99.90
6740;DHT22;3407;49.882;10.920;2023-04-23T17:38:01;18.10;99.90
6740;DHT22;3407;49.882;10.920;2023-04-23T17:42:57;18.00;99.90
6740;DHT22;3407;49.882;10.920;2023-04-23T17:47:53;17.90;99.90
6740;DHT22;3407;49.882;10.920;2023-04-23T17:52:50;17.80;99.90
6740;DHT22;3407;49.882;10.920;2023-04-23T17:57:45;17.70;99.90
6740;DHT22;3407;49.882;10.920;2023-04-23T18:02:41;17.50;99.90
6740;DHT22;3407;49.882;10.920;2023-04-23T18:07:37;17.40;99.90
6740;DHT22;3407;49.882;10.920;2023-04-23T18:12:33;17.20;99.90
6740;DHT22;3407;49.882;10.920;2023-04-23T18:17:29;17.10;99.90
6740;DHT22;3407;49.882;10.920;2023-04-23T18:22:25;17.00;99.90
6740;DHT22;3407;49.882;10.920;2023-04-23T18:27:20;16.80;99.90
6740;DHT22;3407;49.882;10.920;2023-04-23T18:32:16;16.70;99.90
6740;DHT22;3407;49.882;10.920;2023-04-23T18:42:25;16.40;99.90
6740;DHT22;3407;49.882;10.920;2023-04-23T18:47:24;16.30;99.90
6740;DHT22;3407;49.882;10.920;2023-04-23T18:52:22;16.30;99.90
6740;DHT22;3407;49.882;10.920;2023-04-23T18:57:18;16.20;99.90
6740;DHT22;3407;49.882;10.920;2023-04-23T19:02:13;16.20;99.90
6740;DHT22;3407;49.882;10.920;2023-04-23T19:07:09;16.30;1.00
6740;DHT22;3407;49.882;10.920;2023-04-23T19:12:04;16.30;1.00
6740;DHT22;3407;49.882;10.920;2023-04-23T19:17:00;16.30;1.00
6740;DHT22;3407;49.882;10.920;2023-04-23T19:21:56;16.20;99.90
6740;DHT22;3407;49.882;10.920;2023-04-23T19:26:51;15.60;99.90
6740;DHT22;3407;49.882;10.920;2023-04-23T19:31:47;14.60;1.00
6740;DHT22;3407;49.882;10.920;2023-04-23T19:36:42;14.00;1.00
6740;DHT22;3407;49.882;10.920;2023-04-23T19:41:38;13.60;1.00
6740;DHT22;3407;49.882;10.920;2023-04-23T19:46:34;13.30;1.00
6740;DHT22;3407;49.882;10.920;2023-04-23T19:51:31;13.00;1.00
6740;DHT22;3407;49.882;10.920;2023-04-23T19:56:29;12.90;10.20
6740;DHT22;3407;49.882;10.920;2023-04-23T20:01:25;12.80;20.30
6740;DHT22;3407;49.882;10.920;2023-04-23T20:06:22;12.80;23.20
6740;DHT22;3407;49.882;10.920;2023-04-23T20:11:17;12.70;21.20
6740;DHT22;3407;49.882;10.920;2023-04-23T20:16:13;12.80;25.80
6740;DHT22;3407;49.882;10.920;2023-04-23T20:21:08;12.90;29.00
6740;DHT22;3407;49.882;10.920;2023-04-23T20:26:05;12.90;30.30
6740;DHT22;3407;49.882;10.920;2023-04-23T20:31:01;12.90;29.90
6740;DHT22;3407;49.882;10.920;2023-04-23T20:35:57;13.00;42.10
6740;DHT22;3407;49.882;10.920;2023-04-23T20:40:56;13.00;27.70
6740;DHT22;3407;49.882;10.920;2023-04-23T20:45:56;13.00;46.40
6740;DHT22;3407;49.882;10.920;2023-04-23T20:50:52;13.10;42.70
6740;DHT22;3407;49.882;10.920;2023-04-23T20:55:47;13.10;51.50
6740;DHT22;3407;49.882;10.920;2023-04-23T21:00:43;13.10;52.10
6740;DHT22;3407;49.882;10.920;2023-04-23T21:05:38;13.00;44.70
6740;DHT22;3407;49.882;10.920;2023-04-23T21:10:39;12.80;39.80
6740;DHT22;3407;49.882;10.920;2023-04-23T21:15:35;12.70;42.20
6740;DHT22;3407;49.882;10.920;2023-04-23T21:20:31;12.70;45.60
6740;DHT22;3407;49.882;10.920;2023-04-23T21:25:27;12.40;23.30
6740;DHT22;3407;49.882;10.920;2023-04-23T21:30:48;12.20;25.00
6740;DHT22;3407;49.882;10.920;2023-04-23T21:35:44;12.20;48.20
6740;DHT22;3407;49.882;10.920;2023-04-23T21:40:39;12.10;34.90
6740;DHT22;3407;49.882;10.920;2023-04-23T21:45:35;12.00;38.30
6740;DHT22;3407;49.882;10.920;2023-04-23T21:50:31;11.90;45.20
6740;DHT22;3407;49.882;10.920;2023-04-23T21:55:28;11.80;42.40
6740;DHT22;3407;49.882;10.920;2023-04-23T22:00:25;11.70;47.20
6740;DHT22;3407;49.882;10.920;2023-04-23T22:05:22;11.70;48.50
6740;DHT22;3407;49.882;10.920;2023-04-23T22:10:19;11.60;50.70
6740;DHT22;3407;49.882;10.920;2023-04-23T22:15:17;11.60;50.80
6740;DHT22;3407;49.882;10.920;2023-04-23T22:20:13;11.60;53.30
6740;DHT22;3407;49.882;10.920;2023-04-23T22:25:09;11.60;58.00
6740;DHT22;3407;49.882;10.920;2023-04-23T22:30:06;11.70;61.40
6740;DHT22;3407;49.882;10.920;2023-04-23T22:35:04;11.80;66.90
6740;DHT22;3407;49.882;10.920;2023-04-23T22:40:01;11.90;65.60
6740;DHT22;3407;49.882;10.920;2023-04-23T22:44:57;11.90;69.70
6740;DHT22;3407;49.882;10.920;2023-04-23T22:49:52;12.00;70.20
6740;DHT22;3407;49.882;10.920;2023-04-23T22:54:48;12.00;77.40
6740;DHT22;3407;49.882;10.920;2023-04-23T22:59:44;12.00;77.20
6740;DHT22;3407;49.882;10.920;2023-04-23T23:04:39;12.00;76.60
6740;DHT22;3407;49.882;10.920;2023-04-23T23:09:35;12.00;73.30
6740;DHT22;3407;49.882;10.920;2023-04-23T23:14:31;12.00;77.50
6740;DHT22;3407;49.882;10.920;2023-04-23T23:19:27;12.10;69.00
6740;DHT22;3407;49.882;10.920;2023-04-23T23:24:23;12.10;53.10
6740;DHT22;3407;49.882;10.920;2023-04-23T23:29:18;12.20;45.30
6740;DHT22;3407;49.882;10.920;2023-04-23T23:34:14;12.20;36.10
6740;DHT22;3407;49.882;10.920;2023-04-23T23:39:09;12.20;30.70
6740;DHT22;3407;49.882;10.920;2023-04-23T23:44:05;12.20;26.10
6740;DHT22;3407;49.882;10.920;2023-04-23T23:49:01;12.20;11.10
6740;DHT22;3407;49.882;10.920;2023-04-23T23:53:56;12.10;9.50
6740;DHT22;3407;49.882;10.920;2023-04-23T23:58:52;12.00;6.30
